createdAt,value
2022-12-27T04:04:50.079Z,99816.94
2022-12-27T04:07:16.881Z,99811.06
2022-12-27T04:10:02.076Z,99810.94
2022-12-27T04:12:47.141Z,99807.28
2022-12-27T04:15:32.084Z,99793.38
2022-12-27T04:18:17.365Z,99767.66
2022-12-27T04:21:02.532Z,99791.75
2022-12-27T04:23:47.632Z,99788.47
2022-12-27T04:26:32.811Z,99786.47
2022-12-27T04:29:17.856Z,99782.13
2022-12-27T04:32:02.739Z,99782.75
2022-12-27T04:34:44.302Z,99785.31
2022-12-27T04:37:16.798Z,99763.88
2022-12-27T04:40:03.121Z,99777.03
2022-12-27T04:42:48.362Z,99761.56
2022-12-27T04:45:33.615Z,99770.78
2022-12-27T04:48:19.072Z,99772.94
2022-12-27T04:51:04.284Z,99762.53
2022-12-27T04:53:49.472Z,99761.94
2022-12-27T04:56:15.976Z,99761.50
2022-12-27T04:59:02.625Z,99755.88
2022-12-27T05:01:48.173Z,99768.94
2022-12-27T05:04:15.577Z,99767.47
2022-12-27T05:06:42.083Z,99773.38
2022-12-27T05:09:26.961Z,99770.88
2022-12-27T05:12:11.896Z,99755.41
2022-12-27T05:14:38.404Z,99780.75
2022-12-27T05:17:05.108Z,99779.25
2022-12-27T05:19:34.483Z,99778.25
2022-12-27T05:22:19.264Z,99771.25
2022-12-27T05:25:04.443Z,99779.28
2022-12-27T05:27:31.013Z,99777.63
2022-12-27T05:29:57.555Z,99749.88
2022-12-27T05:32:24.060Z,99774.25
2022-12-27T05:34:50.609Z,99780.31
2022-12-27T05:37:17.134Z,99788.38
2022-12-27T05:39:43.702Z,99779.63
2022-12-27T05:42:10.196Z,99769.09
2022-12-27T05:44:36.721Z,99773.44
2022-12-27T05:47:03.248Z,99776.94
2022-12-27T05:49:29.742Z,99771.41
2022-12-27T05:51:56.228Z,99780.44
2022-12-27T05:54:22.800Z,99774.41
2022-12-27T05:56:49.266Z,99781.97
2022-12-27T05:59:15.804Z,99784.59
2022-12-27T06:01:42.340Z,99786.38
2022-12-27T06:04:10.206Z,99777.03
2022-12-27T06:06:36.741Z,99770.41
2022-12-27T06:09:03.384Z,99784.53
2022-12-27T06:11:29.954Z,99778.44
2022-12-27T06:13:56.467Z,99769.03
2022-12-27T06:16:23.866Z,99782.81
2022-12-27T06:18:50.407Z,99771.84
2022-12-27T06:21:19.923Z,99761.19
2022-12-27T06:23:47.512Z,99766.47
2022-12-27T06:26:23.342Z,99765.16
2022-12-27T06:28:50.729Z,99772.19
2022-12-27T06:31:21.427Z,99767.47
2022-12-27T06:33:49.858Z,99767.94
2022-12-27T06:36:19.407Z,99766.78
2022-12-27T06:38:46.641Z,99772.00
2022-12-27T06:41:17.282Z,99774.69
2022-12-27T06:43:44.885Z,99774.03
2022-12-27T06:46:17.655Z,99769.66
2022-12-27T06:48:48.142Z,99765.03
2022-12-27T06:51:17.025Z,99781.97
2022-12-27T06:53:45.879Z,99768.94
2022-12-27T06:56:17.914Z,99780.94
2022-12-27T06:58:45.974Z,99789.63
2022-12-27T07:01:21.512Z,99775.31
2022-12-27T07:03:50.536Z,99776.00
2022-12-27T07:06:17.920Z,99787.75
2022-12-27T07:08:44.470Z,99780.28
2022-12-27T07:11:12.313Z,99784.59
2022-12-27T07:13:45.140Z,99787.59
2022-12-27T07:16:13.746Z,99795.22
2022-12-27T07:18:41.032Z,99804.25
2022-12-27T07:21:12.418Z,99797.78
2022-12-27T07:23:39.141Z,99797.84
2022-12-27T07:26:09.635Z,99812.06
2022-12-27T07:28:37.043Z,99813.44
2022-12-27T07:31:15.359Z,99821.28
2022-12-27T07:33:42.820Z,99804.66
2022-12-27T07:36:13.673Z,99833.47
2022-12-27T07:38:40.769Z,99819.16
2022-12-27T07:41:07.604Z,99806.03
2022-12-27T07:43:35.582Z,99821.59
2022-12-27T07:46:15.167Z,99838.78
2022-12-27T07:48:42.399Z,99843.66
2022-12-27T07:51:09.760Z,99833.31
2022-12-27T07:53:36.531Z,99819.06
2022-12-27T07:56:08.453Z,99869.59
2022-12-27T07:58:39.870Z,99871.25
2022-12-27T08:01:07.184Z,99896.03
2022-12-27T08:03:35.610Z,99934.41
2022-12-27T08:06:02.483Z,99971.94
2022-12-27T08:08:49.774Z,99954.69
2022-12-27T08:11:16.331Z,99931.31
2022-12-27T08:13:42.867Z,99915.69
2022-12-27T08:16:16.170Z,99894.28
2022-12-27T08:18:42.880Z,99865.34
2022-12-27T08:21:09.353Z,99873.34
2022-12-27T08:23:35.920Z,99883.72
2022-12-27T08:26:02.428Z,99902.44
2022-12-27T08:28:31.820Z,99925.97
2022-12-27T08:30:59.669Z,99893.41
2022-12-27T08:33:27.437Z,99885.91
2022-12-27T08:35:55.053Z,99863.88
2022-12-27T08:38:21.790Z,99878.56
2022-12-27T08:40:48.634Z,99878.66
2022-12-27T08:43:15.435Z,99908.34
2022-12-27T08:45:42.168Z,99941.75
2022-12-27T08:48:09.023Z,99962.94
2022-12-27T08:50:35.730Z,99950.84
2022-12-27T08:53:04.266Z,99945.59
2022-12-27T08:55:31.797Z,99950.09
2022-12-27T08:58:04.021Z,99951.75
2022-12-27T09:00:31.233Z,99936.38
2022-12-27T09:02:58.322Z,99915.53
2022-12-27T09:05:26.761Z,99925.69
2022-12-27T09:07:53.491Z,99935.81
2022-12-27T09:10:20.892Z,99935.44
2022-12-27T09:12:47.615Z,99950.38
2022-12-27T09:15:14.399Z,99953.75
2022-12-27T09:17:41.195Z,99942.53
2022-12-27T09:20:09.090Z,99946.75
2022-12-27T09:22:35.747Z,99972.84
2022-12-27T09:25:02.337Z,99989.88
2022-12-27T09:27:28.893Z,100008.41
2022-12-27T09:29:55.369Z,100017.03
2022-12-27T09:32:21.981Z,100038.75
2022-12-27T09:34:48.506Z,100046.97
2022-12-27T09:37:15.081Z,100108.03
2022-12-27T09:39:41.647Z,100164.16
2022-12-27T09:42:50.732Z,100151.78
2022-12-27T09:45:28.408Z,100196.97
2022-12-27T09:48:00.812Z,100234.00
2022-12-27T09:50:32.748Z,100249.78
2022-12-27T09:53:06.918Z,100230.28
2022-12-27T09:55:53.090Z,100155.81
2022-12-27T09:58:37.597Z,100060.78
2022-12-27T10:01:17.716Z,100034.50
2022-12-27T10:03:44.756Z,100013.19
2022-12-27T10:06:33.555Z,99992.47
2022-12-27T10:09:11.710Z,100002.25
2022-12-27T10:12:29.958Z,99990.31
2022-12-27T10:15:31.744Z,99988.38
2022-12-27T10:18:11.956Z,99995.16
2022-12-27T10:21:08.413Z,99989.66
2022-12-27T10:23:38.595Z,99974.00
2022-12-27T10:26:11.614Z,99990.63
2022-12-27T10:28:45.265Z,99990.41
2022-12-27T10:31:17.980Z,99981.16
2022-12-27T10:33:46.805Z,99993.06
2022-12-27T10:36:20.770Z,99988.19
2022-12-27T10:38:47.307Z,99979.75
2022-12-27T10:41:26.914Z,99974.03
2022-12-27T10:43:58.179Z,99985.03
2022-12-27T10:46:35.246Z,99984.97
2022-12-27T10:49:21.633Z,100002.31
2022-12-27T10:51:50.501Z,99999.28
2022-12-27T10:54:24.564Z,100001.56
2022-12-27T10:56:52.226Z,100003.59
2022-12-27T10:59:29.219Z,100006.75
2022-12-27T11:02:04.295Z,99999.16
2022-12-27T11:04:31.304Z,99994.31
2022-12-27T11:07:06.244Z,100011.84
2022-12-27T11:09:35.657Z,100012.28
2022-12-27T11:12:23.828Z,100014.84
2022-12-27T11:15:00.823Z,100006.56
2022-12-27T11:17:29.838Z,99992.34
2022-12-27T11:19:58.684Z,99987.66
2022-12-27T11:22:27.040Z,100006.56
2022-12-27T11:25:00.313Z,100005.84
2022-12-27T11:27:28.940Z,100030.00
2022-12-27T11:30:00.852Z,100016.59
2022-12-27T11:32:27.582Z,100005.19
2022-12-27T11:34:56.793Z,100003.41
2022-12-27T11:37:27.314Z,100007.53
2022-12-27T11:40:15.523Z,99995.19
2022-12-27T11:42:51.164Z,99996.44
2022-12-27T11:45:28.590Z,99991.59
2022-12-27T11:48:02.707Z,100003.44
2022-12-27T11:50:53.969Z,100006.81
2022-12-27T11:53:26.226Z,100009.25
2022-12-27T11:56:11.140Z,100010.63
2022-12-27T11:59:17.340Z,100025.25
2022-12-27T12:02:21.666Z,100024.59
2022-12-27T12:05:09.528Z,100031.56
2022-12-27T12:08:00.236Z,100023.53
2022-12-27T12:10:57.840Z,100028.78
2022-12-27T12:13:57.647Z,100030.22
2022-12-27T12:16:36.135Z,100115.00
2022-12-27T12:19:24.208Z,100245.50
2022-12-27T12:22:04.806Z,100261.00
2022-12-27T12:24:55.895Z,100261.72
2022-12-27T12:27:48.899Z,100241.59
2022-12-27T12:30:27.202Z,100114.13
2022-12-27T12:33:20.933Z,100198.94
2022-12-27T12:36:18.493Z,100236.72
2022-12-27T12:38:55.317Z,100204.16
2022-12-27T12:41:42.313Z,100243.50
2022-12-27T12:44:08.798Z,100253.06
2022-12-27T12:46:53.893Z,100218.63
2022-12-27T12:49:32.903Z,100142.16
2022-12-27T12:52:30.679Z,100123.47
2022-12-27T12:55:38.527Z,100121.59
2022-12-27T12:58:17.546Z,100101.41
2022-12-27T13:01:14.340Z,100092.03
2022-12-27T13:03:58.344Z,100103.59
2022-12-27T13:06:30.768Z,100104.25
2022-12-27T13:09:15.992Z,100083.97
2022-12-27T13:12:02.654Z,100087.09
2022-12-27T13:14:55.133Z,100084.38
2022-12-27T13:17:33.361Z,100076.22
2022-12-27T13:20:18.408Z,100081.69
2022-12-27T13:23:12.726Z,100094.88
2022-12-27T13:25:58.485Z,100158.91
2022-12-27T13:28:45.788Z,100138.28
2022-12-27T13:31:15.249Z,100125.00
2022-12-27T13:33:50.063Z,100103.94
2022-12-27T13:36:27.004Z,100087.19
2022-12-27T13:39:11.809Z,100107.53
2022-12-27T13:41:55.857Z,100111.88
2022-12-27T13:44:31.574Z,100120.66
2022-12-27T13:47:35.734Z,100106.13
2022-12-27T13:50:25.015Z,100103.28
2022-12-27T13:53:28.577Z,100083.66
2022-12-27T13:59:53.240Z,100096.22
2022-12-27T14:02:38.102Z,100093.25
2022-12-27T14:05:37.248Z,100099.22
2022-12-27T14:08:12.655Z,100099.84
2022-12-27T14:10:55.303Z,100101.81
2022-12-27T14:13:38.959Z,100102.19
2022-12-27T14:16:24.467Z,100109.88
2022-12-27T14:18:57.132Z,100120.44
2022-12-27T14:22:16.374Z,100122.47
2022-12-27T14:24:45.542Z,100124.56
2022-12-27T14:27:33.203Z,100121.97
2022-12-27T14:30:17.590Z,100125.47
2022-12-27T14:33:17.824Z,100115.94
2022-12-27T14:36:15.204Z,100108.97
2022-12-27T14:38:53.983Z,100109.25
2022-12-27T14:41:41.987Z,100120.41
2022-12-27T14:44:44.749Z,100109.78
2022-12-27T14:47:49.081Z,100100.66
2022-12-27T14:50:51.951Z,100094.63
2022-12-27T14:53:36.778Z,100087.81
2022-12-27T14:56:51.361Z,100078.84
2022-12-27T14:59:44.223Z,100083.78
2022-12-27T15:02:41.002Z,100082.88
2022-12-27T15:05:23.148Z,100058.22
2022-12-27T15:08:13.782Z,100072.88
2022-12-27T15:10:59.245Z,100071.84
2022-12-27T15:13:40.828Z,100080.56
2022-12-27T15:16:23.420Z,100072.69
2022-12-27T15:19:10.798Z,100060.34
2022-12-27T15:21:59.152Z,100066.28
2022-12-27T15:25:00.932Z,100060.81
2022-12-27T15:27:45.642Z,100058.22
2022-12-27T15:30:25.163Z,100050.03
2022-12-27T15:32:59.077Z,100042.56
2022-12-27T15:36:04.639Z,100042.50
2022-12-27T15:38:53.040Z,100039.13
2022-12-27T15:41:29.367Z,100051.56
2022-12-27T15:44:28.425Z,100040.09
2022-12-27T15:47:12.646Z,100029.19
2022-12-27T15:49:56.864Z,100025.19
2022-12-27T15:52:39.260Z,100024.75
2022-12-27T15:55:40.893Z,100013.56
2022-12-27T15:58:20.365Z,100018.31
2022-12-27T16:01:19.189Z,100002.78
2022-12-27T16:03:51.444Z,99985.91
2022-12-27T16:06:47.214Z,99974.44
2022-12-27T16:09:35.635Z,99961.28
2022-12-27T16:12:10.293Z,99970.75
2022-12-27T16:14:42.941Z,99979.13
2022-12-27T16:17:42.407Z,99979.28
2022-12-27T16:20:18.862Z,99973.25
2022-12-27T16:22:57.770Z,99961.50
2022-12-27T16:25:40.574Z,99949.28
2022-12-27T16:28:21.610Z,99946.47
2022-12-27T16:30:54.369Z,99926.78
2022-12-27T16:33:28.448Z,99936.72
2022-12-27T16:36:16.861Z,99953.03
2022-12-27T16:39:11.724Z,99930.28
2022-12-27T16:41:40.957Z,99951.41
2022-12-27T16:44:25.829Z,99944.28
2022-12-27T16:47:03.108Z,99939.22
2022-12-27T16:50:18.719Z,99948.63
2022-12-27T16:53:01.092Z,99958.03
2022-12-27T16:55:57.920Z,99955.06
2022-12-27T16:58:34.613Z,99949.00
2022-12-27T17:01:04.098Z,99950.75
2022-12-27T17:03:37.006Z,99944.53
2022-12-27T17:06:32.565Z,99914.91
2022-12-27T17:09:09.210Z,99934.34
2022-12-27T17:11:47.778Z,99941.78
2022-12-27T17:14:17.133Z,99939.50
2022-12-27T17:17:03.808Z,99935.75
2022-12-27T17:19:33.943Z,99937.31
2022-12-27T17:22:04.509Z,99930.16
2022-12-27T17:24:31.290Z,99904.69
2022-12-27T17:27:13.060Z,99922.56
2022-12-27T17:30:04.593Z,99914.72
2022-12-27T17:33:16.169Z,99907.63
2022-12-27T17:35:55.979Z,99901.88
2022-12-27T17:38:51.220Z,99839.88
2022-12-27T17:41:59.039Z,99893.69
2022-12-27T17:44:38.095Z,99882.50
2022-12-27T17:47:16.734Z,99865.44
2022-12-27T17:49:43.396Z,99864.53
2022-12-27T17:52:34.997Z,99842.94
2022-12-27T17:55:38.472Z,99850.22
2022-12-27T17:58:08.122Z,99860.50
2022-12-27T18:00:57.200Z,99797.31
2022-12-27T18:03:46.084Z,99824.56
2022-12-27T18:06:31.975Z,99828.47
2022-12-27T18:09:32.991Z,99810.28
2022-12-27T18:12:28.119Z,99802.75
2022-12-27T18:15:19.123Z,99799.47
2022-12-27T18:18:08.167Z,99763.34
2022-12-27T18:21:00.770Z,99782.56
2022-12-27T18:23:49.084Z,99772.06
2022-12-27T18:26:38.775Z,99780.13
2022-12-27T18:29:25.661Z,99783.13
2022-12-27T18:32:16.086Z,99758.56
2022-12-27T18:35:03.525Z,99780.09
2022-12-27T18:37:51.053Z,99775.66
2022-12-27T18:40:37.967Z,99770.63
2022-12-27T18:43:24.848Z,99776.59
2022-12-27T18:46:31.145Z,99764.56
2022-12-27T18:49:27.259Z,99771.00
2022-12-27T18:52:21.475Z,99769.41
2022-12-27T18:55:08.230Z,99764.25
2022-12-27T18:58:02.391Z,99747.84
2022-12-27T19:00:52.203Z,99752.22
2022-12-27T19:03:41.045Z,99765.31
2022-12-27T19:06:31.847Z,99768.97
2022-12-27T19:09:20.607Z,99757.00
2022-12-27T19:12:18.448Z,99765.34
2022-12-27T19:15:16.482Z,99761.75
2022-12-27T19:18:22.017Z,99750.28
2022-12-27T19:21:16.323Z,99762.16
2022-12-27T19:24:39.087Z,99755.44
2022-12-27T19:27:26.018Z,99749.38
2022-12-27T19:30:33.025Z,99751.66
2022-12-27T19:33:30.760Z,99738.16
2022-12-27T19:36:36.158Z,99731.19
2022-12-27T19:39:29.306Z,99736.81
2022-12-27T19:42:21.939Z,99749.25
2022-12-27T19:45:14.152Z,99728.84
2022-12-27T19:48:00.972Z,99721.16
2022-12-27T19:50:50.634Z,99727.59
2022-12-27T19:53:39.560Z,99742.25
2022-12-27T19:56:26.875Z,99729.25
2022-12-27T19:59:21.919Z,99734.13
2022-12-27T20:02:09.406Z,99743.13
2022-12-27T20:04:56.550Z,99736.75
2022-12-27T20:07:43.601Z,99750.28
2022-12-27T20:10:30.453Z,99734.63
2022-12-27T20:13:17.430Z,99732.09
2022-12-27T20:16:04.584Z,99719.44
2022-12-27T20:18:51.461Z,99738.81
2022-12-27T20:21:40.046Z,99732.53
2022-12-27T20:24:26.883Z,99738.19
2022-12-27T20:27:19.905Z,99732.81
2022-12-27T20:30:07.364Z,99722.28
2022-12-27T20:32:54.206Z,99734.50
2022-12-27T20:35:41.189Z,99717.19
2022-12-27T20:38:28.270Z,99720.94
2022-12-27T20:41:18.127Z,99700.81
2022-12-27T20:44:05.567Z,99713.38
2022-12-27T20:46:52.434Z,99705.19
2022-12-27T20:49:39.429Z,99699.69
2022-12-27T20:52:30.996Z,99698.69
2022-12-27T20:55:18.172Z,99672.53
2022-12-27T20:58:04.965Z,99679.50
2022-12-27T21:00:54.987Z,99665.13
2022-12-27T21:03:43.617Z,99661.78
2022-12-27T21:06:33.491Z,99651.84
2022-12-27T21:09:20.419Z,99657.91
2022-12-27T21:12:07.494Z,99660.56
2022-12-27T21:14:54.297Z,99660.25
2022-12-27T21:17:41.128Z,99674.50
2022-12-27T21:20:28.287Z,99670.00
2022-12-27T21:23:15.092Z,99668.28
2022-12-27T21:26:12.105Z,99668.44
2022-12-27T21:29:02.714Z,99658.78
2022-12-27T21:31:49.548Z,99656.72
2022-12-27T21:34:37.356Z,99645.72
2022-12-27T21:37:25.303Z,99665.59
2022-12-27T21:40:12.507Z,99650.25
2022-12-27T21:42:59.315Z,99649.81
2022-12-27T21:45:46.183Z,99646.63
2022-12-27T21:48:35.312Z,99644.81
2022-12-27T21:51:22.735Z,99649.00
2022-12-27T21:54:13.692Z,99642.69
2022-12-27T21:57:00.802Z,99621.50
2022-12-27T21:59:47.742Z,99626.09
2022-12-27T22:02:34.993Z,99599.97
2022-12-27T22:05:21.995Z,99629.81
2022-12-27T22:08:09.018Z,99627.16
2022-12-27T22:10:56.891Z,99630.66
2022-12-27T22:13:43.856Z,99635.97
2022-12-27T22:16:34.058Z,99624.03
2022-12-27T22:19:20.866Z,99625.97
2022-12-27T22:22:07.691Z,99616.88
2022-12-27T22:24:54.513Z,99618.16
2022-12-27T22:27:41.359Z,99606.56
2022-12-27T22:30:28.199Z,99596.41
2022-12-27T22:33:15.679Z,99591.97
2022-12-27T22:36:09.867Z,99597.16
2022-12-27T22:38:58.319Z,99607.09
2022-12-27T22:41:45.218Z,99594.66
2022-12-27T22:44:32.100Z,99591.13
2022-12-27T22:47:27.668Z,99590.38
2022-12-27T22:50:15.129Z,99593.75
2022-12-27T22:53:01.907Z,99584.09
2022-12-27T22:55:48.911Z,99603.16
2022-12-27T22:58:35.720Z,99604.75
2022-12-27T23:01:31.520Z,99605.09
2022-12-27T23:04:18.494Z,99608.19
2022-12-27T23:07:05.897Z,99603.88
2022-12-27T23:09:52.776Z,99600.16
2022-12-27T23:12:39.659Z,99588.88
2022-12-27T23:15:26.455Z,99610.44
2022-12-27T23:18:13.365Z,99600.66
2022-12-27T23:21:21.046Z,99613.25
2022-12-27T23:24:07.776Z,99612.50
2022-12-27T23:26:54.619Z,99593.00
2022-12-27T23:29:44.167Z,99586.66
2022-12-27T23:32:31.009Z,99587.03
2022-12-27T23:35:18.028Z,99595.84
2022-12-27T23:38:05.253Z,99582.47
2022-12-27T23:40:56.614Z,99586.69
2022-12-27T23:43:52.898Z,99583.31
2022-12-27T23:46:40.492Z,99586.56
2022-12-27T23:49:27.309Z,99583.25
2022-12-27T23:52:14.169Z,99574.03
2022-12-27T23:55:01.058Z,99575.41
2022-12-27T23:57:47.842Z,99566.53
